createdAt,value
2023-04-09T00:01:29.065Z,41.53
2023-04-09T00:03:56.672Z,41.53
2023-04-09T00:06:23.931Z,40.76
2023-04-09T00:08:51.408Z,41.59
2023-04-09T00:11:18.928Z,41.54
2023-04-09T00:13:46.294Z,41.57
2023-04-09T00:16:13.328Z,41.04
2023-04-09T00:18:41.575Z,41.60
2023-04-09T00:21:08.985Z,40.86
2023-04-09T00:23:36.562Z,41.42
2023-04-09T00:26:03.959Z,41.34
2023-04-09T00:28:31.351Z,41.69
2023-04-09T00:30:58.830Z,41.44
2023-04-09T00:33:26.544Z,41.90
2023-04-09T00:35:53.849Z,42.09
2023-04-09T00:38:21.398Z,42.27
2023-04-09T00:40:50.070Z,41.90
2023-04-09T00:43:17.873Z,42.29
2023-04-09T00:45:45.570Z,41.74
2023-04-09T00:48:13.713Z,42.13
2023-04-09T00:50:41.759Z,41.76
2023-04-09T00:53:09.232Z,41.43
2023-04-09T00:55:36.910Z,41.29
2023-04-09T00:58:04.321Z,41.57
2023-04-09T01:00:32.073Z,41.11
2023-04-09T01:02:59.242Z,41.50
2023-04-09T01:06:10.341Z,41.84
2023-04-09T01:08:58.569Z,41.48
2023-04-09T01:11:49.345Z,41.48
2023-04-09T01:14:54.115Z,41.69
2023-04-09T01:17:46.864Z,41.68
2023-04-09T01:20:37.364Z,41.38
2023-04-09T01:23:10.463Z,41.16
2023-04-09T01:25:59.254Z,41.57
2023-04-09T01:28:45.261Z,41.25
2023-04-09T01:31:18.659Z,40.99
2023-04-09T01:33:46.132Z,40.71
2023-04-09T01:36:13.553Z,39.99
2023-04-09T01:38:42.624Z,40.32
2023-04-09T01:41:23.706Z,39.79
2023-04-09T01:43:51.043Z,40.40
2023-04-09T01:46:18.930Z,39.54
2023-04-09T01:48:46.517Z,39.69
2023-04-09T01:51:14.009Z,39.61
2023-04-09T01:53:42.003Z,39.71
2023-04-09T01:56:09.419Z,39.63
2023-04-09T01:58:36.762Z,39.72
2023-04-09T02:01:09.462Z,39.66
2023-04-09T02:03:40.003Z,39.52
2023-04-09T02:06:23.965Z,39.57
2023-04-09T02:08:51.550Z,39.31
2023-04-09T02:11:19.117Z,39.31
2023-04-09T02:13:46.183Z,39.39
2023-04-09T02:16:13.783Z,39.15
2023-04-09T02:18:41.107Z,39.00
2023-04-09T02:21:08.538Z,38.96
2023-04-09T02:23:35.970Z,39.24
2023-04-09T02:26:03.023Z,38.79
2023-04-09T02:28:30.897Z,38.63
2023-04-09T02:30:58.365Z,38.89
2023-04-09T02:33:25.829Z,38.91
2023-04-09T02:35:53.131Z,38.25
2023-04-09T02:38:20.919Z,38.10
2023-04-09T02:40:48.023Z,38.40
2023-04-09T02:43:15.594Z,38.55
2023-04-09T02:45:42.978Z,37.88
2023-04-09T02:48:10.359Z,37.27
2023-04-09T02:50:37.942Z,37.00
2023-04-09T02:53:05.336Z,37.04
2023-04-09T02:55:32.451Z,36.53
2023-04-09T02:57:59.592Z,36.50
2023-04-09T03:00:27.040Z,36.29
2023-04-09T03:02:55.641Z,36.43
2023-04-09T03:05:23.455Z,36.89
2023-04-09T03:07:50.801Z,36.81
2023-04-09T03:10:18.305Z,36.24
2023-04-09T03:12:47.911Z,36.39
2023-04-09T03:15:15.610Z,36.02
2023-04-09T03:17:42.938Z,35.81
2023-04-09T03:20:10.972Z,35.76
2023-04-09T03:26:58.219Z,34.95
2023-04-09T03:29:26.552Z,34.73
2023-04-09T03:31:53.930Z,34.43
2023-04-09T03:34:21.293Z,34.15
2023-04-09T03:36:53.029Z,34.07
2023-04-09T03:39:30.683Z,33.46
2023-04-09T03:41:59.026Z,33.59
2023-04-09T03:44:30.065Z,33.40
2023-04-09T03:47:10.140Z,32.29
2023-04-09T03:49:39.259Z,32.55
2023-04-09T03:52:17.897Z,32.18
2023-04-09T03:54:51.779Z,31.12
2023-04-09T03:57:23.069Z,31.28
2023-04-09T03:59:52.895Z,31.21
2023-04-09T04:02:22.922Z,31.08
2023-04-09T04:04:58.477Z,30.62
2023-04-09T04:07:30.430Z,29.78
2023-04-09T04:10:07.307Z,29.66
2023-04-09T04:12:34.401Z,29.58
2023-04-09T04:15:09.316Z,29.85
2023-04-09T04:17:47.738Z,30.23
2023-04-09T04:20:26.309Z,30.43
2023-04-09T04:23:01.872Z,29.64
2023-04-09T04:25:30.469Z,30.13
2023-04-09T04:27:58.108Z,29.90
2023-04-09T04:30:35.346Z,29.40
2023-04-09T04:33:06.406Z,29.88
2023-04-09T04:35:41.671Z,29.88
2023-04-09T04:38:16.441Z,29.76
2023-04-09T04:40:43.620Z,30.41
2023-04-09T04:43:11.051Z,30.27
2023-04-09T04:45:38.644Z,30.03
2023-04-09T04:48:10.590Z,29.88
2023-04-09T04:50:37.973Z,29.41
2023-04-09T04:53:08.372Z,29.56
2023-04-09T04:55:45.196Z,29.22
2023-04-09T04:58:15.157Z,28.97
2023-04-09T05:00:50.057Z,28.73
2023-04-09T05:03:17.785Z,28.57
2023-04-09T05:05:53.701Z,28.98
2023-04-09T05:08:22.592Z,28.59
2023-04-09T05:10:55.732Z,28.53
2023-04-09T05:13:26.455Z,28.74
2023-04-09T05:15:54.894Z,28.71
2023-04-09T05:18:22.007Z,28.67
2023-04-09T05:20:49.631Z,28.51
2023-04-09T05:23:18.199Z,28.79
2023-04-09T05:25:49.680Z,28.62
2023-04-09T05:28:25.556Z,29.08
2023-04-09T05:31:03.886Z,28.82
2023-04-09T05:33:37.746Z,28.68
2023-04-09T05:36:18.277Z,28.35
2023-04-09T05:38:48.465Z,28.20
2023-04-09T05:41:15.939Z,28.44
2023-04-09T05:44:00.487Z,28.83
2023-04-09T05:46:29.001Z,28.99
2023-04-09T05:48:56.810Z,28.67
2023-04-09T05:51:26.494Z,28.25
2023-04-09T05:53:55.610Z,28.46
2023-04-09T05:56:23.164Z,28.51
2023-04-09T05:58:54.096Z,28.46
2023-04-09T06:01:21.636Z,28.50
2023-04-09T06:03:50.405Z,28.60
2023-04-09T06:06:18.421Z,28.50
2023-04-09T06:08:45.825Z,28.38
2023-04-09T06:11:13.779Z,28.21
2023-04-09T06:13:41.188Z,28.13
2023-04-09T06:16:08.877Z,27.85
2023-04-09T06:18:36.876Z,27.75
2023-04-09T06:21:05.114Z,27.54
2023-04-09T06:23:33.301Z,27.55
2023-04-09T06:26:00.353Z,26.97
2023-04-09T06:28:28.727Z,26.39
2023-04-09T06:30:56.269Z,26.44
2023-04-09T06:33:24.247Z,25.80
2023-04-09T06:35:51.494Z,24.89
2023-04-09T06:38:18.585Z,26.12
2023-04-09T06:40:46.105Z,25.99
2023-04-09T06:43:13.292Z,25.54
2023-04-09T06:45:48.732Z,26.36
2023-04-09T06:48:16.553Z,26.56
2023-04-09T06:50:44.442Z,26.71
2023-04-09T06:53:11.626Z,26.58
2023-04-09T06:55:38.794Z,27.12
2023-04-09T06:58:06.592Z,27.56
2023-04-09T07:00:33.933Z,27.39
2023-04-09T07:03:01.406Z,27.43
2023-04-09T07:05:28.929Z,27.78
2023-04-09T07:07:56.164Z,27.49
2023-04-09T07:10:23.530Z,26.43
2023-04-09T07:12:50.876Z,26.18
2023-04-09T07:15:18.341Z,26.39
2023-04-09T07:17:45.751Z,25.83
2023-04-09T07:20:13.488Z,25.62
2023-04-09T07:22:41.297Z,26.26
2023-04-09T07:25:09.320Z,26.21
2023-04-09T07:27:36.539Z,26.85
2023-04-09T07:30:04.437Z,26.74
2023-04-09T07:32:31.827Z,26.57
2023-04-09T07:34:59.268Z,26.88
2023-04-09T07:37:27.164Z,26.81
2023-04-09T07:39:54.923Z,27.31
2023-04-09T07:42:22.266Z,27.50
2023-04-09T07:44:49.530Z,27.72
2023-04-09T07:47:16.676Z,27.62
2023-04-09T07:49:43.974Z,28.19
2023-04-09T07:52:11.673Z,27.63
2023-04-09T07:54:39.340Z,28.01
2023-04-09T07:57:06.716Z,28.43
2023-04-09T07:59:34.948Z,28.10
2023-04-09T08:02:02.206Z,28.14
2023-04-09T08:04:30.234Z,28.26
2023-04-09T08:06:57.386Z,28.68
2023-04-09T08:09:24.816Z,28.90
2023-04-09T08:11:51.855Z,28.71
2023-04-09T08:14:19.537Z,27.83
2023-04-09T08:16:47.303Z,27.83
2023-04-09T08:19:16.454Z,27.68
2023-04-09T08:21:44.132Z,27.04
2023-04-09T08:24:11.920Z,27.00
2023-04-09T08:26:40.251Z,27.12
2023-04-09T08:29:08.050Z,27.27
2023-04-09T08:31:36.579Z,27.01
2023-04-09T08:34:04.026Z,26.90
2023-04-09T08:36:32.264Z,26.96
2023-04-09T08:39:00.396Z,26.69
2023-04-09T08:41:31.498Z,26.91
2023-04-09T08:43:59.748Z,27.26
2023-04-09T08:46:27.490Z,26.25
2023-04-09T08:48:55.344Z,25.86
2023-04-09T08:51:24.011Z,26.27
2023-04-09T08:54:04.013Z,26.07
2023-04-09T08:56:31.687Z,26.26
2023-04-09T08:58:58.958Z,26.60
2023-04-09T09:01:29.960Z,25.85
2023-04-09T09:04:00.950Z,26.25
2023-04-09T09:06:33.018Z,25.18
2023-04-09T09:09:11.059Z,25.92
2023-04-09T09:11:40.960Z,26.16
2023-04-09T09:14:15.106Z,25.34
2023-04-09T09:16:44.564Z,25.17
2023-04-09T09:19:26.997Z,25.32
2023-04-09T09:21:58.450Z,25.61
2023-04-09T09:24:26.333Z,26.09
2023-04-09T09:26:57.503Z,25.68
2023-04-09T09:29:25.751Z,26.17
2023-04-09T09:31:54.338Z,27.21
2023-04-09T09:34:22.927Z,27.39
2023-04-09T09:36:50.336Z,27.13
2023-04-09T09:39:17.530Z,27.10
2023-04-09T09:41:45.759Z,27.29
2023-04-09T09:44:13.763Z,27.26
2023-04-09T09:46:42.284Z,27.81
2023-04-09T09:49:09.764Z,28.46
2023-04-09T09:51:39.599Z,28.35
2023-04-09T09:54:08.062Z,28.80
2023-04-09T09:56:36.047Z,27.89
2023-04-09T09:59:07.414Z,28.75
2023-04-09T10:01:37.869Z,29.36
2023-04-09T10:04:06.268Z,29.92
2023-04-09T10:06:38.572Z,31.89
2023-04-09T10:09:06.836Z,31.75
2023-04-09T10:11:34.588Z,32.48
2023-04-09T10:14:01.970Z,32.39
2023-04-09T10:16:29.529Z,36.51
2023-04-09T10:18:57.489Z,41.09
2023-04-09T10:21:43.840Z,41.90
2023-04-09T10:24:10.916Z,42.84
2023-04-09T10:26:40.794Z,44.53
2023-04-09T10:29:15.615Z,46.26
2023-04-09T10:32:10.296Z,48.67
2023-04-09T10:34:42.160Z,50.02
2023-04-09T10:37:15.766Z,51.28
2023-04-09T10:39:50.658Z,52.11
2023-04-09T10:42:27.105Z,53.32
2023-04-09T10:45:10.308Z,53.62
2023-04-09T10:47:38.169Z,53.99
2023-04-09T10:50:30.584Z,53.75
2023-04-09T10:53:00.032Z,50.79
2023-04-09T10:55:36.282Z,49.87
2023-04-09T11:03:09.509Z,48.89
2023-04-09T11:05:40.361Z,49.89
2023-04-09T11:08:11.972Z,51.05
2023-04-09T11:10:41.341Z,50.66
2023-04-09T11:13:13.117Z,50.66
2023-04-09T11:15:40.901Z,50.19
2023-04-09T11:18:11.849Z,50.19
2023-04-09T11:20:38.941Z,50.24
2023-04-09T11:23:06.450Z,50.75
2023-04-09T11:25:35.217Z,48.71
2023-04-09T11:28:03.984Z,48.05
2023-04-09T11:30:30.932Z,48.00
2023-04-09T11:32:58.676Z,48.25
2023-04-09T11:35:25.967Z,49.53
2023-04-09T11:37:56.114Z,49.92
2023-04-09T11:40:25.680Z,50.68
2023-04-09T11:42:54.664Z,51.14
2023-04-09T11:45:27.786Z,51.40
2023-04-09T11:47:55.227Z,52.38
2023-04-09T11:50:22.484Z,52.77
2023-04-09T11:52:50.253Z,52.49
2023-04-09T11:55:30.297Z,53.14
2023-04-09T11:58:00.512Z,53.97
2023-04-09T12:00:28.267Z,53.03
2023-04-09T12:03:01.309Z,52.33
2023-04-09T12:05:30.408Z,51.20
2023-04-09T12:07:59.943Z,50.48
2023-04-09T12:10:33.474Z,50.37
2023-04-09T12:13:08.201Z,49.96
2023-04-09T12:15:41.186Z,49.65
2023-04-09T12:18:09.585Z,49.18
2023-04-09T12:20:39.653Z,48.66
2023-04-09T12:23:07.444Z,48.87
2023-04-09T12:25:36.474Z,47.94
2023-04-09T12:28:04.694Z,48.41
2023-04-09T12:30:32.962Z,48.56
2023-04-09T12:33:00.375Z,49.08
2023-04-09T12:35:28.121Z,48.89
2023-04-09T12:37:55.214Z,49.08
2023-04-09T12:40:22.572Z,48.87
2023-04-09T12:42:50.032Z,49.06
2023-04-09T12:45:18.469Z,48.85
2023-04-09T12:47:46.104Z,48.82
2023-04-09T12:50:13.739Z,48.66
2023-04-09T12:52:41.133Z,48.85
2023-04-09T12:55:09.118Z,48.63
2023-04-09T12:57:37.841Z,48.79
2023-04-09T13:00:06.112Z,48.89
2023-04-09T13:02:34.052Z,48.75
2023-04-09T13:05:01.502Z,48.76
2023-04-09T13:07:29.525Z,48.89
2023-04-09T13:09:57.178Z,48.70
2023-04-09T13:12:24.860Z,48.62
2023-04-09T13:14:53.851Z,48.46
2023-04-09T13:17:21.132Z,48.09
2023-04-09T13:19:48.799Z,47.55
2023-04-09T13:22:16.077Z,47.02
2023-04-09T13:24:43.598Z,46.39
2023-04-09T13:27:11.274Z,45.96
2023-04-09T13:29:38.766Z,39.45
2023-04-09T13:32:10.611Z,38.30
2023-04-09T13:34:38.629Z,39.34
2023-04-09T13:37:06.089Z,39.01
2023-04-09T13:39:33.401Z,38.92
2023-04-09T13:42:05.334Z,39.46
2023-04-09T13:44:37.502Z,39.08
2023-04-09T13:47:04.918Z,38.48
2023-04-09T13:49:32.045Z,38.48
2023-04-09T13:51:59.655Z,37.75
2023-04-09T13:54:26.978Z,36.73
2023-04-09T13:56:54.664Z,34.78
2023-04-09T13:59:21.904Z,34.12
2023-04-09T14:01:49.194Z,32.78
2023-04-09T14:04:16.871Z,31.89
2023-04-09T14:06:44.218Z,31.00
2023-04-09T14:09:11.864Z,29.97
2023-04-09T14:11:38.905Z,29.84
2023-04-09T14:14:06.773Z,29.70
2023-04-09T14:16:34.259Z,29.09
2023-04-09T14:19:01.739Z,29.20
2023-04-09T14:21:28.971Z,29.28
2023-04-09T14:23:56.531Z,29.36
2023-04-09T14:26:24.320Z,28.50
2023-04-09T14:28:52.047Z,28.31
2023-04-09T14:31:22.414Z,27.72
2023-04-09T14:33:50.393Z,28.34
2023-04-09T14:36:18.071Z,28.01
2023-04-09T14:38:46.116Z,27.44
2023-04-09T14:41:13.463Z,27.57
2023-04-09T14:43:40.565Z,27.30
2023-04-09T14:46:11.444Z,27.56
2023-04-09T14:48:39.987Z,27.71
2023-04-09T14:51:11.130Z,27.74
2023-04-09T14:53:38.369Z,27.77
2023-04-09T14:56:06.455Z,27.87
2023-04-09T14:58:33.778Z,28.52
2023-04-09T15:01:01.045Z,28.63
2023-04-09T15:03:28.411Z,28.69
2023-04-09T15:05:55.795Z,29.10
2023-04-09T15:08:23.507Z,28.77
2023-04-09T15:10:51.025Z,29.29
2023-04-09T15:13:18.670Z,29.29
2023-04-09T15:15:46.108Z,29.38
2023-04-09T15:18:13.442Z,29.90
2023-04-09T15:20:42.042Z,30.08
2023-04-09T15:23:10.876Z,30.07
2023-04-09T15:25:38.738Z,30.50
2023-04-09T15:28:06.128Z,30.90
2023-04-09T15:30:35.517Z,30.81
2023-04-09T15:33:03.067Z,30.93
2023-04-09T15:35:31.429Z,31.24
2023-04-09T15:37:58.580Z,31.34
2023-04-09T15:40:25.893Z,31.28
2023-04-09T15:42:53.140Z,31.20
2023-04-09T15:45:20.439Z,31.26
2023-04-09T15:47:48.128Z,30.95
2023-04-09T15:50:15.592Z,30.83
2023-04-09T15:52:42.771Z,30.66
2023-04-09T15:55:11.010Z,30.61
2023-04-09T15:57:39.153Z,30.55
2023-04-09T16:00:10.774Z,30.38
2023-04-09T16:02:38.992Z,30.01
2023-04-09T16:05:09.344Z,30.30
2023-04-09T16:07:36.729Z,30.58
2023-04-09T16:10:04.840Z,30.27
2023-04-09T16:12:32.762Z,30.44
2023-04-09T16:15:00.388Z,30.70
2023-04-09T16:17:27.612Z,31.11
2023-04-09T16:19:55.137Z,31.18
2023-04-09T16:22:22.485Z,31.41
2023-04-09T16:24:49.666Z,31.65
2023-04-09T16:27:16.826Z,31.64
2023-04-09T16:29:44.344Z,32.23
2023-04-09T16:32:11.733Z,32.08
2023-04-09T16:34:38.713Z,32.08
2023-04-09T16:37:06.207Z,32.16
2023-04-09T16:39:33.658Z,32.24
2023-04-09T16:42:01.553Z,32.33
2023-04-09T16:44:29.081Z,32.41
2023-04-09T16:46:56.302Z,32.48
2023-04-09T16:49:23.613Z,32.61
2023-04-09T16:51:53.019Z,32.84
2023-04-09T16:54:20.849Z,32.56
2023-04-09T16:56:48.851Z,32.43
2023-04-09T16:59:18.155Z,32.65
2023-04-09T17:01:45.582Z,32.48
2023-04-09T17:04:12.842Z,32.71
2023-04-09T17:06:40.347Z,32.75
2023-04-09T17:09:07.687Z,32.69
2023-04-09T17:11:35.587Z,32.60
2023-04-09T17:14:02.950Z,32.62
2023-04-09T17:16:30.576Z,32.50
2023-04-09T17:18:57.765Z,32.14
2023-04-09T17:21:26.176Z,32.03
2023-04-09T17:23:53.521Z,32.24
2023-04-09T17:26:20.776Z,32.12
2023-04-09T17:28:48.146Z,31.96
2023-04-09T17:31:16.093Z,31.55
2023-04-09T17:33:47.708Z,31.66
2023-04-09T17:36:17.333Z,31.69
2023-04-09T17:38:45.132Z,31.58
2023-04-09T17:41:12.694Z,32.02
2023-04-09T17:43:39.995Z,31.87
2023-04-09T17:46:10.005Z,32.21
2023-04-09T17:48:37.062Z,31.88
2023-04-09T17:51:06.177Z,31.86
2023-04-09T17:53:33.760Z,31.96
2023-04-09T17:56:03.613Z,31.34
2023-04-09T17:58:31.252Z,31.66
2023-04-09T18:00:59.620Z,32.76
2023-04-09T18:03:26.964Z,32.98
2023-04-09T18:05:54.630Z,32.95
2023-04-09T18:08:22.174Z,32.66
2023-04-09T18:11:04.940Z,33.49
2023-04-09T18:13:36.354Z,33.01
2023-04-09T18:16:03.862Z,32.97
2023-04-09T18:18:31.222Z,33.28
2023-04-09T18:20:58.867Z,33.22
2023-04-09T18:23:26.765Z,33.49
2023-04-09T18:25:54.141Z,33.44
2023-04-09T18:28:21.980Z,33.21
2023-04-09T18:30:49.389Z,33.37
2023-04-09T18:33:16.638Z,33.41
2023-04-09T18:35:44.017Z,33.70
2023-04-09T18:38:11.096Z,33.92
2023-04-09T18:40:42.873Z,33.64
2023-04-09T18:43:11.305Z,33.90
2023-04-09T18:45:41.609Z,33.66
2023-04-09T18:48:09.111Z,33.51
2023-04-09T18:50:36.816Z,33.57
2023-04-09T18:53:05.318Z,33.55
2023-04-09T18:55:32.634Z,33.45
2023-04-09T18:58:00.261Z,33.22
2023-04-09T19:00:27.600Z,33.36
2023-04-09T19:02:55.100Z,33.30
2023-04-09T19:05:22.529Z,33.28
2023-04-09T19:07:49.617Z,33.34
2023-04-09T19:10:16.965Z,33.12
2023-04-09T19:12:50.666Z,33.14
2023-04-09T19:15:18.020Z,32.96
2023-04-09T19:17:45.242Z,33.04
2023-04-09T19:20:13.662Z,32.87
2023-04-09T19:22:41.125Z,32.73
2023-04-09T19:25:09.834Z,32.81
2023-04-09T19:27:38.345Z,32.56
2023-04-09T19:30:06.380Z,32.67
2023-04-09T19:32:33.961Z,32.78
2023-04-09T19:35:01.909Z,33.10
2023-04-09T19:37:30.458Z,33.23
2023-04-09T19:39:58.558Z,33.18
2023-04-09T19:42:28.679Z,33.36
2023-04-09T19:44:56.064Z,33.05
2023-04-09T19:47:23.113Z,34.12
2023-04-09T19:49:50.980Z,34.23
2023-04-09T19:52:18.031Z,34.41
2023-04-09T19:54:46.166Z,34.78
2023-04-09T19:57:15.082Z,34.73
2023-04-09T19:59:42.240Z,34.43
2023-04-09T20:02:09.292Z,34.01
2023-04-09T20:04:36.755Z,33.96
2023-04-09T20:07:04.061Z,34.10
2023-04-09T20:09:32.308Z,33.87
2023-04-09T20:12:04.144Z,34.11
2023-04-09T20:14:31.518Z,34.31
2023-04-09T20:16:59.280Z,34.13
2023-04-09T20:19:27.139Z,34.01
2023-04-09T20:21:54.764Z,33.97
2023-04-09T20:24:22.864Z,34.50
2023-04-09T20:26:50.999Z,35.09
2023-04-09T20:29:18.972Z,35.52
2023-04-09T20:31:46.314Z,35.82
2023-04-09T20:34:13.770Z,36.80
2023-04-09T20:36:43.417Z,37.54
2023-04-09T20:39:11.394Z,37.60
2023-04-09T20:41:38.727Z,37.85
2023-04-09T20:44:06.702Z,37.67
2023-04-09T20:46:34.394Z,37.93
2023-04-09T20:49:03.519Z,37.64
2023-04-09T20:51:30.546Z,37.93
2023-04-09T20:53:59.409Z,38.27
2023-04-09T20:56:26.565Z,37.79
2023-04-09T20:58:57.293Z,37.92
2023-04-09T21:01:27.097Z,37.91
2023-04-09T21:03:54.677Z,37.88
2023-04-09T21:06:22.192Z,38.11
2023-04-09T21:08:49.753Z,37.87
2023-04-09T21:11:16.911Z,37.96
2023-04-09T21:13:53.728Z,38.52
2023-04-09T21:16:22.744Z,38.37
2023-04-09T21:18:50.629Z,37.85
2023-04-09T21:21:18.553Z,37.82
2023-04-09T21:23:46.191Z,37.11
2023-04-09T21:26:14.997Z,36.72
2023-04-09T21:28:43.023Z,37.16
2023-04-09T21:31:11.324Z,37.01
2023-04-09T21:33:41.410Z,37.00
2023-04-09T21:36:08.980Z,36.64
2023-04-09T21:38:36.465Z,36.66
2023-04-09T21:41:03.784Z,36.54
2023-04-09T21:43:31.096Z,37.26
2023-04-09T21:45:58.690Z,36.71
2023-04-09T21:48:30.283Z,36.82
2023-04-09T21:51:01.164Z,36.75
2023-04-09T21:53:31.177Z,37.29
2023-04-09T21:55:58.453Z,37.53
2023-04-09T21:58:25.728Z,37.49
2023-04-09T22:00:52.961Z,37.43
2023-04-09T22:03:21.798Z,37.46
2023-04-09T22:05:49.340Z,37.10
2023-04-09T22:08:16.581Z,36.85
2023-04-09T22:10:43.905Z,36.88
2023-04-09T22:13:11.018Z,36.55
2023-04-09T22:15:38.566Z,36.37
2023-04-09T22:18:05.886Z,36.40
2023-04-09T22:20:33.496Z,36.49
2023-04-09T22:23:00.563Z,36.41
2023-04-09T22:25:34.798Z,36.40
2023-04-09T22:28:02.099Z,36.38
2023-04-09T22:30:29.919Z,36.25
2023-04-09T22:32:57.487Z,36.55
2023-04-09T22:35:24.834Z,36.75
2023-04-09T22:37:52.808Z,36.38
2023-04-09T22:40:20.051Z,36.79
2023-04-09T22:42:47.956Z,36.76
2023-04-09T22:45:15.710Z,37.08
2023-04-09T22:47:43.200Z,37.15
2023-04-09T22:50:11.322Z,36.97
2023-04-09T22:52:38.421Z,37.06
2023-04-09T22:55:06.296Z,37.41
2023-04-09T22:57:33.892Z,37.48
2023-04-09T23:00:01.409Z,37.35
2023-04-09T23:02:29.286Z,37.29
2023-04-09T23:04:56.666Z,37.07
2023-04-09T23:07:23.793Z,36.97
2023-04-09T23:09:54.873Z,36.46
2023-04-09T23:12:22.235Z,36.38
2023-04-09T23:14:49.497Z,36.04
2023-04-09T23:17:17.223Z,35.82
2023-04-09T23:19:45.201Z,36.10
2023-04-09T23:22:12.470Z,35.69
2023-04-09T23:24:39.636Z,35.32
2023-04-09T23:27:06.735Z,35.38
2023-04-09T23:29:34.540Z,35.26
2023-04-09T23:32:02.665Z,35.75
2023-04-09T23:34:30.526Z,35.06
2023-04-09T23:36:57.941Z,35.39
2023-04-09T23:39:25.303Z,35.51
2023-04-09T23:41:52.522Z,35.53
2023-04-09T23:44:19.934Z,34.81
2023-04-09T23:46:47.515Z,34.55
2023-04-09T23:49:15.908Z,34.26
2023-04-09T23:51:43.185Z,34.13
2023-04-09T23:54:10.263Z,34.03
2023-04-09T23:56:37.383Z,33.58
2023-04-09T23:59:04.667Z,32.43
